Time;durP1;ratioP1;P1;durP2;ratioP2;P2;SDS_P1;SDS_P2;PMS_P1;PMS_P2;Temp;Humidity;BMP_temperature;BMP_pressure;BME280_temperature;BME280_humidity;BME280_pressure;Samples;Min_cycle;Max_cycle;Signal;HPM_P1;HPM_P2
2023/07/12 00:00:00;;;;;;;4.70;3.42;;;;;;;;;;10242599;28;20031;-65
2023/07/12 00:05:00;;;;;;;7.00;3.97;;;;;;;;;;10227472;28;20094;-64
2023/07/12 00:10:01;;;;;;;6.97;3.72;;;;;;;;;;10238682;28;20028;-64
2023/07/12 00:15:01;;;;;;;4.18;3.50;;;;;;;;;;10241419;28;20275;-63
2023/07/12 00:20:03;;;;;;;5.82;3.80;;;;;;;;;;10250891;28;20039;-63
2023/07/12 00:25:04;;;;;;;3.83;3.42;;;;;;;;;;10251121;28;20062;-58
2023/07/12 00:30:21;;;;;;;4.40;3.28;;;;;;;;;;10249615;28;20471;-58
2023/07/12 00:35:25;;;;;;;4.05;3.53;;;;;;;;;;10237343;28;20460;-58
2023/07/12 00:40:46;;;;;;;6.00;4.13;;;;;;;;;;10249178;28;20047;-58
2023/07/12 00:45:50;;;;;;;8.77;4.13;;;;;;;;;;10250042;28;20082;-58
2023/07/12 00:50:51;;;;;;;5.20;3.60;;;;;;;;;;10246971;28;20078;-58
2023/07/12 00:56:05;;;;;;;4.75;3.60;;;;;;;;;;10249714;28;20118;-59
2023/07/12 01:01:08;;;;;;;5.18;3.63;;;;;;;;;;10247242;28;20443;-59
2023/07/12 01:06:15;;;;;;;4.00;3.42;;;;;;;;;;10247578;28;20033;-59
2023/07/12 01:11:17;;;;;;;8.00;3.20;;;;;;;;;;10242957;28;20031;-59
2023/07/12 01:16:22;;;;;;;3.45;3.15;;;;;;;;;;10247335;28;20098;-58
2023/07/12 01:21:24;;;;;;;3.47;3.03;;;;;;;;;;10244522;28;20035;-60
2023/07/12 01:26:41;;;;;;;8.00;2.90;;;;;;;;;;10246814;28;20035;-64
2023/07/12 01:31:43;;;;;;;5.70;3.67;;;;;;;;;;10246946;28;20028;-63
2023/07/12 01:36:44;;;;;;;5.25;3.13;;;;;;;;;;10234154;28;20035;-63
2023/07/12 01:41:45;;;;;;;3.97;3.20;;;;;;;;;;10242620;28;20045;-63
2023/07/12 01:46:46;;;;;;;3.17;2.90;;;;;;;;;;10247008;28;20031;-62
2023/07/12 01:51:47;;;;;;;4.50;3.30;;;;;;;;;;10244832;28;20087;-62
2023/07/12 01:56:47;;;;;;;7.93;3.35;;;;;;;;;;10242164;28;20102;-63
2023/07/12 02:01:48;;;;;;;7.85;3.10;;;;;;;;;;10241982;28;20093;-64
2023/07/12 02:06:48;;;;;;;8.00;2.85;;;;;;;;;;10245270;28;20451;-65
2023/07/12 02:11:49;;;;;;;4.05;2.95;;;;;;;;;;10245080;28;20066;-63
2023/07/12 02:16:50;;;;;;;4.55;3.38;;;;;;;;;;10245542;28;20055;-62
2023/07/12 02:21:50;;;;;;;9.90;3.42;;;;;;;;;;10245898;28;20035;-58
2023/07/12 02:26:51;;;;;;;3.50;3.17;;;;;;;;;;10245648;28;20038;-63
2023/07/12 02:31:54;;;;;;;3.97;3.08;;;;;;;;;;10245160;28;20027;-64
2023/07/12 02:36:55;;;;;;;5.25;3.10;;;;;;;;;;10244756;28;20391;-64
2023/07/12 02:41:55;;;;;;;3.42;3.13;;;;;;;;;;10243501;28;20082;-64
2023/07/12 02:46:56;;;;;;;3.67;3.22;;;;;;;;;;10243382;28;20027;-64
2023/07/12 02:51:57;;;;;;;5.53;3.58;;;;;;;;;;10242703;28;20034;-63
2023/07/12 02:56:58;;;;;;;4.25;2.65;;;;;;;;;;10244771;28;20035;-63
2023/07/12 03:01:58;;;;;;;3.58;3.03;;;;;;;;;;10242885;28;20061;-64
2023/07/12 03:06:59;;;;;;;3.17;2.83;;;;;;;;;;10236566;28;20039;-63
2023/07/12 03:12:00;;;;;;;3.92;2.80;;;;;;;;;;10222568;28;20126;-63
2023/07/12 03:17:01;;;;;;;3.17;2.65;;;;;;;;;;10235491;28;20027;-64
2023/07/12 03:22:02;;;;;;;3.17;2.85;;;;;;;;;;10227119;28;20472;-57
2023/07/12 03:27:03;;;;;;;3.67;2.67;;;;;;;;;;10232757;28;20043;-59
2023/07/12 03:32:05;;;;;;;6.00;3.05;;;;;;;;;;10224393;28;20039;-59
2023/07/12 03:37:06;;;;;;;4.05;2.72;;;;;;;;;;10231069;28;20035;-59
2023/07/12 03:42:06;;;;;;;3.78;2.85;;;;;;;;;;10220905;28;20047;-58
2023/07/12 03:47:07;;;;;;;2.83;2.55;;;;;;;;;;10241433;28;20027;-58
2023/07/12 03:52:07;;;;;;;5.95;2.50;;;;;;;;;;10243268;28;20453;-58
2023/07/12 03:57:08;;;;;;;3.20;2.50;;;;;;;;;;10236006;28;20035;-58
2023/07/12 04:02:09;;;;;;;10.10;2.70;;;;;;;;;;10226135;28;20435;-58
2023/07/12 04:07:10;;;;;;;3.85;2.63;;;;;;;;;;10230625;28;20379;-59
2023/07/12 04:12:10;;;;;;;4.45;2.63;;;;;;;;;;10236199;28;20027;-58
2023/07/12 04:17:11;;;;;;;3.92;2.67;;;;;;;;;;10235542;28;20028;-58
2023/07/12 04:22:11;;;;;;;3.08;2.60;;;;;;;;;;10242401;28;20095;-59
2023/07/12 04:27:12;;;;;;;3.42;2.50;;;;;;;;;;10236387;28;20020;-65
2023/07/12 04:32:12;;;;;;;3.70;2.58;;;;;;;;;;10235420;28;20031;-65
2023/07/12 04:37:13;;;;;;;3.97;2.50;;;;;;;;;;10238780;28;20038;-66
2023/07/12 04:42:14;;;;;;;3.25;2.30;;;;;;;;;;10230171;28;20059;-65
2023/07/12 04:47:16;;;;;;;3.13;2.63;;;;;;;;;;10248991;28;20034;-64
2023/07/12 04:52:17;;;;;;;2.88;2.53;;;;;;;;;;10247122;28;20394;-65
2023/07/12 04:57:17;;;;;;;3.80;2.55;;;;;;;;;;10246477;28;20035;-65
2023/07/12 05:02:18;;;;;;;7.07;2.88;;;;;;;;;;10242876;28;20078;-64
2023/07/12 05:07:18;;;;;;;16.48;2.80;;;;;;;;;;10229217;28;20030;-65
2023/07/12 05:12:19;;;;;;;6.78;2.22;;;;;;;;;;10237404;28;20031;-62
2023/07/12 05:17:19;;;;;;;2.72;2.50;;;;;;;;;;10242735;28;20062;-64
2023/07/12 05:22:20;;;;;;;6.60;2.47;;;;;;;;;;10240602;28;20024;-57
2023/07/12 05:27:20;;;;;;;8.45;2.40;;;;;;;;;;10241432;28;20376;-59
2023/07/12 05:32:21;;;;;;;7.57;2.25;;;;;;;;;;10251440;28;20039;-65
2023/07/12 05:37:22;;;;;;;5.68;2.58;;;;;;;;;;10239950;28;20023;-64
2023/07/12 05:42:23;;;;;;;4.03;2.30;;;;;;;;;;10229087;28;20047;-63
2023/07/12 05:47:23;;;;;;;2.63;2.20;;;;;;;;;;10252622;28;20027;-62
2023/07/12 05:52:24;;;;;;;8.65;2.35;;;;;;;;;;10246093;28;20041;-65
2023/07/12 05:57:25;;;;;;;2.45;2.08;;;;;;;;;;10240183;28;20031;-59
2023/07/12 06:02:26;;;;;;;8.23;2.47;;;;;;;;;;10244310;28;20502;-64
2023/07/12 06:07:26;;;;;;;11.85;2.33;;;;;;;;;;10231520;28;20043;-64
2023/07/12 06:12:27;;;;;;;10.02;2.60;;;;;;;;;;10240624;28;20027;-64
2023/07/12 06:17:29;;;;;;;6.75;2.35;;;;;;;;;;10233335;28;20032;-62
2023/07/12 06:22:29;;;;;;;6.95;2.42;;;;;;;;;;10245822;28;20128;-57
2023/07/12 06:27:30;;;;;;;4.25;2.17;;;;;;;;;;10234522;28;20039;-62
2023/07/12 06:32:30;;;;;;;17.95;3.72;;;;;;;;;;10242273;28;20027;-63
2023/07/12 06:37:31;;;;;;;9.77;3.42;;;;;;;;;;10245865;28;20031;-62
2023/07/12 06:42:33;;;;;;;11.25;3.20;;;;;;;;;;10241556;28;20047;-63
2023/07/12 06:47:34;;;;;;;7.22;2.80;;;;;;;;;;10231170;28;20037;-62
2023/07/12 06:52:34;;;;;;;9.35;3.00;;;;;;;;;;10244989;28;20039;-63
2023/07/12 06:57:35;;;;;;;4.45;2.50;;;;;;;;;;10243850;28;20058;-59
2023/07/12 07:02:36;;;;;;;5.32;2.25;;;;;;;;;;10244756;28;20046;-62
2023/07/12 07:07:37;;;;;;;6.22;2.22;;;;;;;;;;10231667;28;20034;-62
2023/07/12 07:12:37;;;;;;;7.40;2.30;;;;;;;;;;10230752;28;20073;-62
2023/07/12 07:17:38;;;;;;;5.68;2.60;;;;;;;;;;10217966;28;20452;-62
2023/07/12 07:22:39;;;;;;;4.90;2.00;;;;;;;;;;10230513;28;20089;-58
2023/07/12 07:27:39;;;;;;;5.43;2.22;;;;;;;;;;10234078;28;20107;-62
2023/07/12 07:32:40;;;;;;;8.40;2.92;;;;;;;;;;10213962;28;20031;-61
2023/07/12 07:37:42;;;;;;;4.63;2.90;;;;;;;;;;10223707;28;20426;-62
2023/07/12 07:42:43;;;;;;;4.82;2.80;;;;;;;;;;10221534;28;20051;-63
2023/07/12 07:47:44;;;;;;;4.47;2.55;;;;;;;;;;10239974;28;20405;-63
2023/07/12 07:52:44;;;;;;;2.72;2.10;;;;;;;;;;10228994;28;20028;-63
2023/07/12 07:57:45;;;;;;;4.32;2.13;;;;;;;;;;10224448;28;20072;-62
2023/07/12 08:02:46;;;;;;;3.88;2.88;;;;;;;;;;10225424;28;20034;-63
2023/07/12 08:07:47;;;;;;;4.00;2.10;;;;;;;;;;10235006;28;20027;-62
2023/07/12 08:12:49;;;;;;;4.28;2.53;;;;;;;;;;10229424;28;20016;-62
2023/07/12 08:17:50;;;;;;;4.60;2.30;;;;;;;;;;10227849;28;20034;-62
2023/07/12 08:22:52;;;;;;;5.03;2.42;;;;;;;;;;10207746;28;20039;-58
2023/07/12 08:27:52;;;;;;;6.60;2.53;;;;;;;;;;10240509;28;20031;-56
2023/07/12 08:32:53;;;;;;;10.15;2.40;;;;;;;;;;10229111;28;20038;-55
2023/07/12 08:37:56;;;;;;;7.13;3.13;;;;;;;;;;10233439;28;20210;-57
2023/07/12 08:42:59;;;;;;;6.90;2.50;;;;;;;;;;10237585;28;20043;-64
2023/07/12 08:48:12;;;;;;;10.93;2.90;;;;;;;;;;10249613;28;20105;-58
2023/07/12 08:53:29;;;;;;;12.57;3.30;;;;;;;;;;10226805;28;20034;-57
2023/07/12 08:58:39;;;;;;;6.67;2.87;;;;;;;;;;10233210;28;20023;-57
2023/07/12 09:03:40;;;;;;;9.60;2.70;;;;;;;;;;10238693;28;20032;-57
2023/07/12 09:08:45;;;;;;;7.93;3.03;;;;;;;;;;10248113;28;20078;-58
2023/07/12 09:13:47;;;;;;;9.38;2.85;;;;;;;;;;10248457;28;20476;-58
2023/07/12 09:18:52;;;;;;;7.47;2.88;;;;;;;;;;10247702;28;20042;-58
2023/07/12 09:23:59;;;;;;;6.78;2.83;;;;;;;;;;10246410;28;20027;-58
2023/07/12 09:29:20;;;;;;;5.87;2.60;;;;;;;;;;10247374;28;20034;-58
2023/07/12 09:34:24;;;;;;;6.97;2.45;;;;;;;;;;10248232;28;20542;-57
2023/07/12 09:39:26;;;;;;;7.20;2.50;;;;;;;;;;10246119;28;20361;-58
2023/07/12 09:44:28;;;;;;;7.88;2.90;;;;;;;;;;10247178;28;20514;-58
2023/07/12 09:49:48;;;;;;;7.68;2.90;;;;;;;;;;10243648;28;20263;-58
2023/07/12 09:55:04;;;;;;;7.28;2.80;;;;;;;;;;10244060;28;20031;-57
2023/07/12 10:00:14;;;;;;;10.15;2.95;;;;;;;;;;10232098;28;20514;-58
2023/07/12 10:05:19;;;;;;;6.10;2.38;;;;;;;;;;10244239;28;20027;-57
2023/07/12 10:10:54;;;;;;;8.23;2.53;;;;;;;;;;10245928;28;20023;-58
2023/07/12 10:15:57;;;;;;;7.43;2.63;;;;;;;;;;10232996;28;20432;-57
2023/07/12 10:20:59;;;;;;;7.32;2.50;;;;;;;;;;10239536;28;20053;-58
2023/07/12 10:26:04;;;;;;;8.48;2.30;;;;;;;;;;10232315;28;20377;-58
2023/07/12 10:31:42;;;;;;;5.97;2.30;;;;;;;;;;10234378;28;20110;-57
2023/07/12 10:36:45;;;;;;;;;;;;;;;;;;10219935;28;20030;-58
2023/07/12 10:41:50;;;;;;;5.10;2.08;;;;;;;;;;10233020;28;19926;-58
2023/07/12 10:46:56;;;;;;;5.32;2.45;;;;;;;;;;10232815;28;20032;-59
2023/07/12 10:52:24;;;;;;;6.15;2.42;;;;;;;;;;10232514;28;20031;-57
2023/07/12 10:57:28;;;;;;;6.28;2.13;;;;;;;;;;10227388;28;20079;-57
2023/07/12 11:02:46;;;;;;;7.18;2.05;;;;;;;;;;10219559;28;20029;-58
2023/07/12 11:07:47;;;;;;;4.43;2.15;;;;;;;;;;10232289;28;20403;-58
2023/07/12 11:12:53;;;;;;;4.47;2.25;;;;;;;;;;10244121;28;20027;-61
2023/07/12 11:18:22;;;;;;;4.60;1.92;;;;;;;;;;10244345;28;20492;-57
2023/07/12 11:23:26;;;;;;;5.28;2.10;;;;;;;;;;10243834;28;20023;-58
2023/07/12 11:28:40;;;;;;;2.22;1.50;;;;;;;;;;10225176;28;20028;-58
2023/07/12 11:33:48;;;;;;;3.70;1.98;;;;;;;;;;10236591;28;20122;-57
2023/07/12 11:38:49;;;;;;;4.30;1.90;;;;;;;;;;10233825;28;20107;-57
2023/07/12 11:44:03;;;;;;;4.40;2.05;;;;;;;;;;10237061;28;20102;-55
2023/07/12 11:49:12;;;;;;;15.10;3.33;;;;;;;;;;10229012;28;20086;-56
2023/07/12 11:54:27;;;;;;;14.80;1.80;;;;;;;;;;10243613;28;20031;-57
2023/07/12 11:59:32;;;;;;;15.23;2.22;;;;;;;;;;10239878;28;20094;-57
2023/07/12 12:04:33;;;;;;;15.50;1.90;;;;;;;;;;10243054;28;20526;-56
2023/07/12 12:09:37;;;;;;;5.75;1.90;;;;;;;;;;10242928;28;20043;-58
2023/07/12 12:14:40;;;;;;;10.32;1.42;;;;;;;;;;10248107;28;20027;-56
2023/07/12 12:19:41;;;;;;;10.68;1.80;;;;;;;;;;10246270;28;20031;-58
2023/07/12 12:24:48;;;;;;;13.55;1.55;;;;;;;;;;10249757;28;20376;-58
2023/07/12 12:29:49;;;;;;;8.70;1.58;;;;;;;;;;10249581;28;20406;-61
2023/07/12 12:34:53;;;;;;;1.70;0.90;;;;;;;;;;10246640;28;20055;-57
2023/07/12 12:40:04;;;;;;;4.03;1.13;;;;;;;;;;10247077;28;20480;-56
2023/07/12 12:45:06;;;;;;;8.93;1.40;;;;;;;;;;10250801;28;20027;-57
2023/07/12 12:50:18;;;;;;;13.05;1.90;;;;;;;;;;10240907;28;20038;-58
2023/07/12 12:55:19;;;;;;;9.75;1.33;;;;;;;;;;10236743;28;20035;-66
2023/07/12 13:00:21;;;;;;;6.03;1.20;;;;;;;;;;10247448;28;20027;-58
2023/07/12 13:05:24;;;;;;;5.40;1.20;;;;;;;;;;10240273;28;20110;-57
2023/07/12 13:10:25;;;;;;;6.25;1.40;;;;;;;;;;10246899;28;20210;-61
2023/07/12 13:15:25;;;;;;;4.47;1.10;;;;;;;;;;10247987;28;20562;-58
2023/07/12 13:20:29;;;;;;;3.78;1.15;;;;;;;;;;10247252;28;20054;-58
2023/07/12 13:25:34;;;;;;;1.73;1.02;;;;;;;;;;10247013;28;20027;-58
2023/07/12 13:30:38;;;;;;;3.58;1.50;;;;;;;;;;10235420;28;20063;-58
2023/07/12 13:35:39;;;;;;;5.97;1.23;;;;;;;;;;10218133;29;20035;-58
2023/07/12 13:40:41;;;;;;;7.22;1.40;;;;;;;;;;10217816;29;20134;-58
2023/07/12 13:45:42;;;;;;;4.07;1.30;;;;;;;;;;10217915;29;20039;-58
2023/07/12 13:50:44;;;;;;;3.50;1.20;;;;;;;;;;10217612;29;20480;-58
2023/07/12 13:55:46;;;;;;;6.82;1.63;;;;;;;;;;10218096;29;20098;-58
2023/07/12 14:00:48;;;;;;;2.67;1.17;;;;;;;;;;10217773;29;20122;-58
2023/07/12 14:05:49;;;;;;;3.67;1.20;;;;;;;;;;10217041;29;20051;-58
2023/07/12 14:10:51;;;;;;;15.23;1.50;;;;;;;;;;10216810;29;20035;-58
2023/07/12 14:15:53;;;;;;;2.63;1.00;;;;;;;;;;10216666;29;20030;-59
2023/07/12 14:20:55;;;;;;;5.45;1.38;;;;;;;;;;10216456;29;20023;-58
2023/07/12 14:25:56;;;;;;;6.65;1.42;;;;;;;;;;10216857;29;20039;-58
2023/07/12 14:30:58;;;;;;;5.05;1.60;;;;;;;;;;10215980;29;20036;-58
2023/07/12 14:36:01;;;;;;;5.22;1.80;;;;;;;;;;10215220;29;20087;-61
2023/07/12 14:41:07;;;;;;;9.00;1.35;;;;;;;;;;10215793;29;20040;-59
2023/07/12 14:46:09;;;;;;;7.53;1.83;;;;;;;;;;10215514;29;20036;-58
2023/07/12 14:51:25;;;;;;;8.15;1.95;;;;;;;;;;10215882;29;20034;-58
2023/07/12 14:56:27;;;;;;;2.83;1.33;;;;;;;;;;10215197;29;20040;-58
2023/07/12 15:01:30;;;;;;;7.88;1.63;;;;;;;;;;10215634;29;20041;-58
2023/07/12 15:06:31;;;;;;;7.00;1.63;;;;;;;;;;10215473;29;20020;-58
2023/07/12 15:11:33;;;;;;;4.85;1.65;;;;;;;;;;10214747;29;20023;-58
2023/07/12 15:16:35;;;;;;;7.50;1.73;;;;;;;;;;10215191;29;20039;-58
2023/07/12 15:21:38;;;;;;;7.93;2.40;;;;;;;;;;10215041;29;20371;-58
2023/07/12 15:26:40;;;;;;;9.05;2.60;;;;;;;;;;10228823;29;20063;-58
2023/07/12 15:31:42;;;;;;;11.25;2.53;;;;;;;;;;10214230;29;20024;-58
2023/07/12 15:36:44;;;;;;;9.68;2.85;;;;;;;;;;10228688;29;20047;-58
2023/07/12 15:41:48;;;;;;;8.52;2.40;;;;;;;;;;10213774;29;20052;-59
2023/07/12 15:46:50;;;;;;;8.15;2.38;;;;;;;;;;10218994;29;20059;-58
2023/07/12 15:51:52;;;;;;;8.20;2.85;;;;;;;;;;10222140;29;20104;-58
2023/07/12 15:56:55;;;;;;;9.52;3.20;;;;;;;;;;10221941;29;20067;-58
2023/07/12 16:01:56;;;;;;;7.10;3.00;;;;;;;;;;10222240;29;20027;-58
2023/07/12 16:06:58;;;;;;;9.07;3.30;;;;;;;;;;10221658;29;20065;-58
2023/07/12 16:12:00;;;;;;;10.00;3.28;;;;;;;;;;10222014;29;20032;-58
2023/07/12 16:17:02;;;;;;;9.32;3.25;;;;;;;;;;10222110;29;20063;-58
2023/07/12 16:22:09;;;;;;;9.05;3.05;;;;;;;;;;10220922;29;20042;-58
2023/07/12 16:27:14;;;;;;;6.33;2.93;;;;;;;;;;10221508;29;20063;-60
2023/07/12 16:32:17;;;;;;;8.90;2.90;;;;;;;;;;10221246;29;20054;-58
2023/07/12 16:37:19;;;;;;;10.80;3.08;;;;;;;;;;10220852;29;20031;-63
2023/07/12 16:42:22;;;;;;;8.07;2.83;;;;;;;;;;10238525;28;20054;-61
2023/07/12 16:47:43;;;;;;;4.55;2.55;;;;;;;;;;10245502;28;20047;-60
2023/07/12 16:52:44;;;;;;;6.20;3.03;;;;;;;;;;10190776;29;20042;-58
2023/07/12 16:57:44;;;;;;;5.53;2.60;;;;;;;;;;10187819;29;20040;-62
2023/07/12 17:02:46;;;;;;;5.95;3.03;;;;;;;;;;10195747;29;20044;-60
2023/07/12 17:07:47;;;;;;;7.93;2.90;;;;;;;;;;10203730;29;20187;-59
2023/07/12 17:12:48;;;;;;;5.70;3.05;;;;;;;;;;10194979;29;20032;-60
2023/07/12 17:17:51;;;;;;;7.25;2.50;;;;;;;;;;10189540;29;20507;-62
2023/07/12 17:22:52;;;;;;;5.97;2.30;;;;;;;;;;10194740;29;20040;-56
2023/07/12 17:27:53;;;;;;;8.05;2.90;;;;;;;;;;10210469;28;20039;-57
2023/07/12 17:32:53;;;;;;;4.88;2.60;;;;;;;;;;10244114;28;20027;-58
2023/07/12 17:37:54;;;;;;;4.32;2.40;;;;;;;;;;10230059;28;20093;-58
2023/07/12 17:42:54;;;;;;;8.07;2.50;;;;;;;;;;10217211;28;20062;-57
2023/07/12 17:47:55;;;;;;;5.55;2.65;;;;;;;;;;10230503;28;20023;-58
2023/07/12 17:52:56;;;;;;;7.30;2.78;;;;;;;;;;10238087;28;20067;-57
2023/07/12 17:57:56;;;;;;;8.48;2.60;;;;;;;;;;10237893;28;20035;-57
2023/07/12 18:02:57;;;;;;;3.63;2.53;;;;;;;;;;10233269;28;20035;-57
2023/07/12 18:07:59;;;;;;;4.35;2.50;;;;;;;;;;10246146;28;20147;-57
2023/07/12 18:13:00;;;;;;;5.68;2.65;;;;;;;;;;10242464;28;20081;-58
2023/07/12 18:18:00;;;;;;;22.40;4.20;;;;;;;;;;10243341;28;20035;-49
2023/07/12 18:23:01;;;;;;;8.75;3.70;;;;;;;;;;10244952;28;20050;-58
2023/07/12 18:28:01;;;;;;;11.02;4.15;;;;;;;;;;10240461;28;20098;-58
2023/07/12 18:33:04;;;;;;;10.88;4.05;;;;;;;;;;10238802;28;20359;-57
2023/07/12 18:38:04;;;;;;;11.77;3.70;;;;;;;;;;10238319;28;20047;-57
2023/07/12 18:43:16;;;;;;;15.05;4.88;;;;;;;;;;10238871;28;20123;-56
2023/07/12 18:48:18;;;;;;;17.13;4.53;;;;;;;;;;10239494;28;20027;-56
2023/07/12 18:53:19;;;;;;;15.68;5.13;;;;;;;;;;10240939;28;20031;-56
2023/07/12 18:58:22;;;;;;;15.27;5.03;;;;;;;;;;10243939;28;20494;-57
2023/07/12 19:03:34;;;;;;;11.73;4.75;;;;;;;;;;10225126;28;20035;-57
2023/07/12 19:08:35;;;;;;;18.65;5.63;;;;;;;;;;10236448;28;20055;-56
2023/07/12 19:13:35;;;;;;;30.25;5.18;;;;;;;;;;10240507;28;20179;-51
2023/07/12 19:18:36;;;;;;;41.55;5.38;;;;;;;;;;10233592;28;20031;-57
2023/07/12 19:23:36;;;;;;;16.92;5.47;;;;;;;;;;10220340;28;20046;-54
2023/07/12 19:28:37;;;;;;;14.23;5.45;;;;;;;;;;10234743;28;20031;-57
2023/07/12 19:33:38;;;;;;;12.00;5.05;;;;;;;;;;10225074;28;20042;-57
2023/07/12 19:38:38;;;;;;;11.10;5.40;;;;;;;;;;10235009;28;20027;-56
2023/07/12 19:43:39;;;;;;;11.93;5.40;;;;;;;;;;10233464;28;20110;-57
2023/07/12 19:48:39;;;;;;;19.35;5.47;;;;;;;;;;10243200;28;20031;-59
2023/07/12 19:53:40;;;;;;;14.40;5.75;;;;;;;;;;10241237;28;20035;-58
2023/07/12 19:58:41;;;;;;;12.10;5.07;;;;;;;;;;10244057;28;20557;-57
2023/07/12 20:03:42;;;;;;;8.50;4.60;;;;;;;;;;10243101;28;20031;-58
2023/07/12 20:08:43;;;;;;;21.15;6.15;;;;;;;;;;10224163;28;20045;-56
2023/07/12 20:13:44;;;;;;;10.07;5.47;;;;;;;;;;10237840;28;20031;-57
2023/07/12 20:18:45;;;;;;;10.10;4.80;;;;;;;;;;10242881;28;20047;-58
2023/07/12 20:23:48;;;;;;;9.35;5.55;;;;;;;;;;10230055;28;20110;-57
2023/07/12 20:28:48;;;;;;;13.55;5.15;;;;;;;;;;10242952;28;20174;-56
2023/07/12 20:33:49;;;;;;;10.48;5.18;;;;;;;;;;10245138;28;20156;-57
2023/07/12 20:38:49;;;;;;;8.52;4.75;;;;;;;;;;10248653;28;20382;-56
2023/07/12 20:43:50;;;;;;;11.48;5.30;;;;;;;;;;10249872;28;20051;-57
2023/07/12 20:48:51;;;;;;;10.77;4.63;;;;;;;;;;10244967;28;20120;-56
2023/07/12 20:53:52;;;;;;;8.27;4.72;;;;;;;;;;10248880;28;20043;-55
2023/07/12 20:58:54;;;;;;;9.40;5.03;;;;;;;;;;10246259;28;20027;-56
2023/07/12 21:03:55;;;;;;;8.57;4.40;;;;;;;;;;10246754;28;20446;-57
2023/07/12 21:08:56;;;;;;;13.13;4.95;;;;;;;;;;10243102;28;20081;-62
2023/07/12 21:13:57;;;;;;;11.90;4.97;;;;;;;;;;10247066;28;20035;-61
2023/07/12 21:18:57;;;;;;;12.60;4.72;;;;;;;;;;10247870;28;20522;-61
2023/07/12 21:23:58;;;;;;;10.93;4.95;;;;;;;;;;10240056;28;20039;-57
2023/07/12 21:28:59;;;;;;;12.55;4.50;;;;;;;;;;10245824;28;20039;-58
2023/07/12 21:33:59;;;;;;;11.23;4.80;;;;;;;;;;10230630;28;20031;-59
2023/07/12 21:39:00;;;;;;;23.17;5.22;;;;;;;;;;10242430;28;20085;-63
2023/07/12 21:44:01;;;;;;;20.33;4.43;;;;;;;;;;10247206;28;20055;-63
2023/07/12 21:49:02;;;;;;;13.77;3.80;;;;;;;;;;10240260;28;20046;-59
2023/07/12 21:54:03;;;;;;;8.23;3.60;;;;;;;;;;10241664;28;20043;-62
2023/07/12 21:59:04;;;;;;;9.77;3.83;;;;;;;;;;10241057;28;20031;-62
2023/07/12 22:04:04;;;;;;;6.10;3.10;;;;;;;;;;10235526;28;20402;-63
2023/07/12 22:09:07;;;;;;;6.13;3.58;;;;;;;;;;10233894;28;20395;-62
2023/07/12 22:14:08;;;;;;;6.28;3.83;;;;;;;;;;10242421;28;20443;-61
2023/07/12 22:19:08;;;;;;;13.38;3.80;;;;;;;;;;10233617;28;20082;-60
2023/07/12 22:24:09;;;;;;;8.63;3.22;;;;;;;;;;10241308;28;20043;-59
2023/07/12 22:29:10;;;;;;;23.27;4.07;;;;;;;;;;10234192;28;20031;-63
2023/07/12 22:34:10;;;;;;;9.70;4.03;;;;;;;;;;10228770;28;20039;-62
2023/07/12 22:39:11;;;;;;;5.95;3.35;;;;;;;;;;10226441;28;20027;-63
2023/07/12 22:44:11;;;;;;;8.73;3.13;;;;;;;;;;10232213;28;20399;-63
2023/07/12 22:49:17;;;;;;;13.00;3.25;;;;;;;;;;10244239;28;20394;-62
2023/07/12 22:54:18;;;;;;;11.70;3.33;;;;;;;;;;10235641;28;20125;-62
2023/07/12 23:04:30;;;;;;;7.78;3.63;;;;;;;;;;10697578;23;20684;-63
2023/07/12 23:09:31;;;;;;;18.52;3.58;;;;;;;;;;10241188;28;20027;-63
2023/07/12 23:14:31;;;;;;;18.10;3.83;;;;;;;;;;10235544;28;20062;-64
2023/07/12 23:19:33;;;;;;;27.90;3.70;;;;;;;;;;10245535;28;20038;-63
2023/07/12 23:24:35;;;;;;;11.27;3.55;;;;;;;;;;10242740;28;20089;-63
2023/07/12 23:29:35;;;;;;;17.88;3.53;;;;;;;;;;10244184;28;20042;-63
2023/07/12 23:34:37;;;;;;;10.75;2.97;;;;;;;;;;10245689;28;20035;-63
2023/07/12 23:39:39;;;;;;;6.70;2.78;;;;;;;;;;10244474;28;20675;-62
2023/07/12 23:44:41;;;;;;;5.93;2.70;;;;;;;;;;10244877;28;20071;-62
2023/07/12 23:49:41;;;;;;;5.28;2.60;;;;;;;;;;10244449;28;20035;-62
2023/07/12 23:54:44;;;;;;;6.53;3.03;;;;;;;;;;10244636;28;20027;-62
2023/07/12 23:59:49;;;;;;;7.63;2.85;;;;;;;;;;10244638;28;20039;-62
